NZAAFMMI

Guest
Details From NZAA - Auckland International
To FMMI - Ivato
Flight Number -
Tags Generated
Created
Modified
Stats Distance 6,325 nm / 11,715 km
Max Altitude 0 ft / 0 m
Waypoints 3
Social Downloads 0
Likes 0
Share VATSIM

Download

Looking for another format? Having issues loading an existing format? Contact us
Advertisement - Login to hide

Notes

Generated

Route

NZAA TAN FMMI

ID Type Via Altitude Latitude Longitude Leg Dist Tot Dist Heading (true) Name
O NZAA APT - 0 ft / 0 m -37.01438˚ 174.77090˚ - 0 nm - -
TAN NDB - 0 ft / 0 m -18.83467˚ 47.47203˚ 6323 nm 6323 nm 231° / 319° ANTANETIBE NDB
O FMMI APT - 0 ft / 0 m -18.79479˚ 47.46427˚ 2 nm 6325 nm 350° / 350° -

Altitude Profile

Advertisement - Login to hide

Weather


0- 5 10 15 20 25 30 35+ Temperature / ° C

Clouds and Precipitation
Forecast for 2018-05-20 18:00 UTC. Updated an hour ago

Ground ~20,000 ft ~40,000 ft Winds

NZAA

Details ICAO NZAA (AKL)
Name Auckland International
Region New Zealand and Antarctica
Timezone Pacific/Auckland (UTC+12.0)
Stats Elevation 23 ft / 7 m (AMSL)
Location -37.010794° 174.787331°
Runways 2
Magnetic Variation 19.856° E

METAR

NZAA 201630Z AUTO 32007KT 9999 NCD 14/13 Q1009 NOSIG

Decode

TAF

TAF AMD NZAA 201214Z 2012/2112 30012KT 9999 -SHRA SCT025 TEMPO 2012/2018 4000 SHRA FEW020CB PROB40 TEMPO 2012/2015 2000 TSRA BKN012 SCT020CB TEMPO 2023/2108 4000 SHRA FEW020TCU TEMPO 2108/2112 6000 SHRA

Decode

Departure Runways

ID Width Length Bearing (true) Bearing (mag) Surface Threshold Offset Overrun Length
05L 157 ft / 48 m 10,844 ft / 3,305 m 70.91° 51.05° Concrete 1,240 ft / 378 m 460 ft / 140 m
05R 152 ft / 46 m 12,085 ft / 3,684 m 70.96° 51.10° Concrete 1,270 ft / 387 m 0 ft / 0 m
23L 152 ft / 46 m 12,085 ft / 3,684 m 250.94° 231.08° Concrete 0 ft / 0 m 0 ft / 0 m
23R 157 ft / 48 m 10,844 ft / 3,305 m 250.89° 231.03° Concrete 1,060 ft / 323 m 0 ft / 0 m

FMMI

Details ICAO FMMI (TNR)
Name IVATO
Region Comoros, Mayotte, Réunion and Madagascar
Timezone Indian/Antananarivo (UTC+3.0)
Stats Elevation 4,198 ft / 1,280 m (AMSL)
Location -18.796950° 47.478806°
Runways 1
Magnetic Variation 15.172° W

METAR

FMMI 201630Z 14008KT 110V170 9999 FEW017 15/11 Q1023 NOSIG

Decode

TAF

TAF FMMI 201100Z 2012/2118 14010KT 9999 SCT017 SCT020= TAF FMEE 201100Z 2012/2118 12018KT 9999 SCT040 TEMPO 2012/2015 12023G35KT BECMG 2014/2016 14015KT PROB40 TEMPO 2021/2103 3000 SHRA BKN020CB PROB30 TEMPO 2021/2103 TSRA BECMG 2104/2106 12018G30KT

Decode

Destination Runways

ID Width Length Bearing (true) Bearing (mag) Surface Threshold Offset Overrun Length
11 148 ft / 45 m 10,167 ft / 3,099 m 98.92° 114.09° Asphalt 0 ft / 0 m 90 ft / 27 m
29 148 ft / 45 m 10,167 ft / 3,099 m 278.91° 294.08° Asphalt 0 ft / 0 m 90 ft / 27 m

Approach Navaids

Runway Type Ident Frequency Range Bearing (true) Bearing (mag) Slope Elevation
11 Localiser IO 109.50 MHz 18 nm / 33 km 98.89° 114.06° - 4,125 ft / 1,257 m (AMSL)
11 Glidescope IO 109.50 MHz 10 nm / 19 km 98.91° 114.08° 3.00° 4,198 ft / 1,280 m (AMSL)

Popular Alternatives